Time;durP1;ratioP1;P1;durP2;ratioP2;P2;SDS_P1;SDS_P2;PMS_P1;PMS_P2;Temp;Humidity;BMP_temperature;BMP_pressure;BME280_temperature;BME280_humidity;BME280_pressure;Samples;Min_cycle;Max_cycle;Signal;HPM_P1;HPM_P2
2021/11/07 00:00:44;;;;;;;3.83;3.38;;;;;16.40;101519.00;;;;5049277;28;20207;-82
2021/11/07 00:03:15;;;;;;;3.45;2.83;;;;;16.40;101524.00;;;;5050223;28;20208;-83
2021/11/07 00:05:46;;;;;;;3.72;2.92;;;;;16.40;101520.00;;;;5045218;28;20227;-83
2021/11/07 00:08:37;;;;;;;4.55;3.15;;;;;16.40;101507.00;;;;5049931;28;20253;-82
2021/11/07 00:11:07;;;;;;;3.60;2.67;;;;;16.40;101501.00;;;;5049258;28;20195;-82
2021/11/07 00:13:35;;;;;;;4.53;3.28;;;;;16.40;101492.00;;;;5050697;28;20226;-82
2021/11/07 00:16:06;;;;;;;3.13;2.80;;;;;16.40;101489.00;;;;5049838;28;20199;-83
2021/11/07 00:18:37;;;;;;;4.03;2.70;;;;;16.40;101484.00;;;;5049708;28;20600;-83
2021/11/07 00:21:08;;;;;;;3.60;2.88;;;;;16.40;101478.00;;;;5049930;28;20206;-83
2021/11/07 00:23:56;;;;;;;4.60;3.05;;;;;16.40;101471.00;;;;5036035;28;20290;-82
2021/11/07 00:26:27;;;;;;;2.90;2.50;;;;;16.40;101478.00;;;;5029999;28;20224;-83
2021/11/07 00:28:57;;;;;;;4.53;3.40;;;;;16.40;101481.00;;;;5029626;28;20528;-82
2021/11/07 00:31:30;;;;;;;5.28;4.38;;;;;16.40;101478.00;;;;5030049;28;20232;-83
2021/11/07 00:36:40;;;;;;;3.80;3.42;;;;;16.40;101474.00;;;;5020625;28;20208;-82
2021/11/07 00:39:15;;;;;;;5.00;3.35;;;;;16.40;101477.00;;;;5029854;28;20204;-83
2021/11/07 00:41:49;;;;;;;3.47;3.17;;;;;16.40;101474.00;;;;5029306;28;20231;-82
2021/11/07 00:44:21;;;;;;;5.35;3.42;;;;;16.40;101468.00;;;;5028622;28;20665;-81
2021/11/07 00:46:50;;;;;;;4.15;3.13;;;;;16.50;101466.00;;;;5029561;28;20216;-83
2021/11/07 00:49:22;;;;;;;3.63;3.33;;;;;16.50;101476.00;;;;5047184;28;20235;-82
2021/11/07 00:52:02;;;;;;;5.43;3.38;;;;;16.50;101463.00;;;;5049427;28;20232;-83
2021/11/07 00:54:41;;;;;;;5.00;3.70;;;;;16.50;101446.00;;;;5048991;28;20203;-82
2021/11/07 00:57:17;;;;;;;4.55;3.05;;;;;16.50;101450.00;;;;5038715;28;20299;-83
2021/11/07 00:59:50;;;;;;;4.15;3.65;;;;;16.60;101453.00;;;;5029159;28;20208;-83
2021/11/07 01:02:20;;;;;;;4.35;3.65;;;;;16.50;101444.00;;;;5028699;28;20642;-82
2021/11/07 01:04:49;;;;;;;4.50;2.65;;;;;16.60;101454.00;;;;5029638;28;20281;-83
2021/11/07 01:07:20;;;;;;;3.20;2.90;;;;;16.60;101433.00;;;;5028220;28;20655;-81
2021/11/07 01:09:49;;;;;;;3.10;2.60;;;;;16.60;101436.00;;;;5029380;28;20561;-83
2021/11/07 01:12:17;;;;;;;5.28;3.13;;;;;16.60;101422.00;;;;5028579;28;20200;-82
2021/11/07 01:14:44;;;;;;;5.05;3.88;;;;;16.60;101422.00;;;;5028899;28;20729;-82
2021/11/07 01:17:11;;;;;;;4.20;3.80;;;;;16.70;101424.00;;;;5039740;28;20191;-82
2021/11/07 01:19:39;;;;;;;4.10;3.33;;;;;16.70;101434.00;;;;5028459;28;20204;-84
2021/11/07 01:22:09;;;;;;;5.07;3.28;;;;;16.70;101439.00;;;;5028302;28;20227;-82
2021/11/07 01:24:37;;;;;;;4.18;2.70;;;;;16.70;101432.00;;;;5027915;28;20215;-82
2021/11/07 01:27:13;;;;;;;3.47;3.15;;;;;16.70;101436.00;;;;5027961;28;20204;-82
2021/11/07 01:29:44;;;;;;;3.20;2.90;;;;;16.70;101429.00;;;;5028539;28;20208;-82
2021/11/07 01:32:12;;;;;;;3.63;2.75;;;;;16.80;101433.00;;;;5028702;28;20200;-83
2021/11/07 01:34:51;;;;;;;4.35;3.05;;;;;16.80;101425.00;;;;5027970;28;20662;-81
2021/11/07 01:37:20;;;;;;;3.83;3.15;;;;;16.80;101420.00;;;;5027798;28;20586;-82
2021/11/07 01:39:51;;;;;;;3.20;2.90;;;;;16.80;101409.00;;;;5028258;28;20196;-82
2021/11/07 01:42:26;;;;;;;2.85;2.58;;;;;16.80;101413.00;;;;5028195;28;20270;-82
2021/11/07 01:44:57;;;;;;;3.20;2.65;;;;;16.90;101414.00;;;;5029938;28;20227;-82
2021/11/07 01:47:25;;;;;;;4.57;3.13;;;;;16.90;101402.00;;;;5032584;28;20215;-83
2021/11/07 01:49:53;;;;;;;4.50;3.15;;;;;16.90;101402.00;;;;5032305;28;20311;-83
2021/11/07 01:52:24;;;;;;;4.97;2.63;;;;;16.90;101397.00;;;;5039421;28;20200;-82
2021/11/07 01:54:54;;;;;;;4.05;2.80;;;;;16.90;101381.00;;;;5052503;28;20309;-82
2021/11/07 01:57:25;;;;;;;3.55;2.45;;;;;16.90;101385.00;;;;5051766;28;20191;-83
2021/11/07 01:59:55;;;;;;;3.10;2.45;;;;;16.90;101384.00;;;;5051683;28;20545;-82
2021/11/07 02:02:25;;;;;;;3.55;2.22;;;;;17.00;101373.00;;;;5051467;28;20195;-82
2021/11/07 02:04:52;;;;;;;4.53;2.53;;;;;17.00;101365.00;;;;5044241;28;20212;-82
2021/11/07 02:07:19;;;;;;;3.15;2.13;;;;;17.00;101375.00;;;;5031374;28;20212;-82
2021/11/07 02:09:47;;;;;;;4.10;2.60;;;;;17.00;101367.00;;;;5032071;28;20203;-82
2021/11/07 02:12:14;;;;;;;5.25;2.50;;;;;17.00;101368.00;;;;5031337;28;20200;-82
2021/11/07 02:14:44;;;;;;;2.95;2.50;;;;;17.00;101360.00;;;;5031841;28;20224;-82
2021/11/07 02:17:12;;;;;;;3.00;2.28;;;;;17.00;101360.00;;;;5031743;28;20215;-83
2021/11/07 02:19:43;;;;;;;4.22;2.63;;;;;17.00;101349.00;;;;5032174;28;20689;-82
2021/11/07 02:22:13;;;;;;;2.40;1.88;;;;;17.00;101364.00;;;;5032169;28;20681;-82
2021/11/07 02:24:41;;;;;;;5.35;2.72;;;;;17.00;101348.00;;;;5032701;28;20204;-83
2021/11/07 02:27:09;;;;;;;5.95;2.85;;;;;17.00;101341.00;;;;5032761;28;20721;-83
2021/11/07 02:29:37;;;;;;;3.60;2.30;;;;;17.10;101343.00;;;;5042622;28;20204;-82
2021/11/07 02:32:06;;;;;;;4.40;2.35;;;;;17.10;101333.00;;;;5031115;28;20580;-82
2021/11/07 02:34:34;;;;;;;3.45;2.33;;;;;17.10;101331.00;;;;5031555;28;20693;-83
2021/11/07 02:37:02;;;;;;;3.08;2.35;;;;;17.20;101333.00;;;;5031431;28;20204;-82
2021/11/07 02:39:31;;;;;;;3.22;2.30;;;;;17.20;101327.00;;;;5031452;28;20567;-82
2021/11/07 02:41:58;;;;;;;4.40;2.38;;;;;17.20;101324.00;;;;5031072;28;20208;-82
2021/11/07 02:44:30;;;;;;;3.60;2.75;;;;;17.20;101338.00;;;;5031798;28;20223;-82
2021/11/07 02:46:58;;;;;;;4.50;2.70;;;;;17.20;101335.00;;;;5031703;28;20220;-84
2021/11/07 02:49:26;;;;;;;4.75;2.80;;;;;17.20;101326.00;;;;5031358;28;20254;-83
2021/11/07 02:51:57;;;;;;;4.65;2.30;;;;;17.20;101324.00;;;;4996461;28;20204;-83
2021/11/07 02:54:25;;;;;;;4.15;2.08;;;;;17.30;101325.00;;;;5011684;28;20259;-82
2021/11/07 02:56:56;;;;;;;3.47;2.28;;;;;17.30;101315.00;;;;4995708;28;20214;-83
2021/11/07 02:59:26;;;;;;;5.55;2.63;;;;;17.30;101309.00;;;;4999863;28;20197;-82
2021/11/07 03:01:54;;;;;;;3.90;2.17;;;;;17.30;101311.00;;;;5010629;28;20212;-84
2021/11/07 03:04:22;;;;;;;5.07;2.20;;;;;17.40;101309.00;;;;5011448;28;20234;-83
2021/11/07 03:06:49;;;;;;;3.70;1.75;;;;;17.40;101316.00;;;;5011021;28;20233;-82
2021/11/07 03:09:22;;;;;;;6.53;2.38;;;;;17.30;101307.00;;;;5010440;28;20553;-82
2021/11/07 03:11:50;;;;;;;7.13;2.67;;;;;17.40;101318.00;;;;5011627;28;20205;-83
2021/11/07 03:14:21;;;;;;;5.20;2.60;;;;;17.40;101317.00;;;;4991488;28;20221;-82
2021/11/07 03:16:49;;;;;;;7.22;2.28;;;;;17.40;101321.00;;;;4991199;28;20211;-83
2021/11/07 03:19:19;;;;;;;7.55;2.42;;;;;17.40;101321.00;;;;4991237;28;20216;-82
2021/11/07 03:21:47;;;;;;;5.63;1.90;;;;;17.40;101333.00;;;;4991205;28;20207;-83
2021/11/07 03:24:16;;;;;;;5.28;2.17;;;;;17.40;101327.00;;;;4990728;28;20204;-83
2021/11/07 03:26:44;;;;;;;5.18;1.75;;;;;17.50;101333.00;;;;4991425;28;20327;-83
2021/11/07 03:29:12;;;;;;;8.05;1.85;;;;;17.50;101330.00;;;;4991648;28;20292;-82
2021/11/07 03:31:48;;;;;;;5.30;1.83;;;;;17.40;101332.00;;;;4991567;28;20220;-83
2021/11/07 03:34:23;;;;;;;9.32;2.25;;;;;17.40;101339.00;;;;4990899;28;20212;-83
2021/11/07 03:36:52;;;;;;;3.65;1.55;;;;;17.40;101333.00;;;;4993852;28;20204;-83
2021/11/07 03:39:21;;;;;;;4.32;1.50;;;;;17.40;101326.00;;;;4998868;28;20233;-83
2021/11/07 03:41:49;;;;;;;8.82;1.85;;;;;17.40;101317.00;;;;4991410;28;20566;-83
2021/11/07 03:44:18;;;;;;;2.97;1.35;;;;;17.30;101322.00;;;;4990023;28;20197;-83
2021/11/07 03:46:49;;;;;;;5.28;1.33;;;;;17.30;101324.00;;;;4991534;28;20229;-83
2021/11/07 03:49:17;;;;;;;4.55;1.55;;;;;17.30;101312.00;;;;4990783;28;20206;-83
2021/11/07 03:51:45;;;;;;;7.45;1.48;;;;;17.20;101304.00;;;;5029818;28;20247;-82
2021/11/07 03:54:15;;;;;;;4.18;1.23;;;;;17.20;101309.00;;;;5049373;28;20700;-82
2021/11/07 03:56:42;;;;;;;5.15;1.35;;;;;17.20;101312.00;;;;5050384;28;20658;-82
2021/11/07 03:59:10;;;;;;;3.83;1.08;;;;;17.20;101306.00;;;;5049058;28;20200;-82
2021/11/07 04:01:37;;;;;;;9.00;1.33;;;;;17.20;101306.00;;;;5049711;28;20207;-82
2021/11/07 04:04:07;;;;;;;5.15;1.00;;;;;17.20;101296.00;;;;5039703;28;20295;-82
2021/11/07 04:06:36;;;;;;;4.82;1.42;;;;;17.10;101297.00;;;;5029755;28;20228;-82
2021/11/07 04:09:04;;;;;;;3.33;1.02;;;;;17.10;101286.00;;;;5029866;28;20201;-82
2021/11/07 04:11:32;;;;;;;3.10;1.35;;;;;17.10;101295.00;;;;5029830;28;20206;-82
2021/11/07 04:13:59;;;;;;;5.03;1.50;;;;;17.10;101299.00;;;;5029711;28;20215;-82
2021/11/07 04:16:26;;;;;;;5.82;1.50;;;;;17.00;101298.00;;;;5030312;28;20224;-82
2021/11/07 04:18:54;;;;;;;7.80;1.85;;;;;17.00;101297.00;;;;5030291;28;20208;-82
2021/11/07 04:21:23;;;;;;;5.22;1.27;;;;;16.90;101287.00;;;;5030237;28;20582;-82
2021/11/07 04:23:50;;;;;;;5.45;1.30;;;;;16.90;101285.00;;;;5030218;28;20655;-82
2021/11/07 04:26:18;;;;;;;3.70;1.00;;;;;16.80;101287.00;;;;5029152;28;20228;-81
2021/11/07 04:28:45;;;;;;;4.57;1.40;;;;;16.80;101290.00;;;;5030134;28;20211;-82
2021/11/07 04:31:12;;;;;;;2.47;1.02;;;;;16.70;101293.00;;;;5029199;28;20196;-82
2021/11/07 04:33:40;;;;;;;9.90;2.38;;;;;16.70;101303.00;;;;5029713;28;20231;-82
2021/11/07 04:36:07;;;;;;;6.15;1.40;;;;;16.70;101301.00;;;;5029555;28;20200;-82
2021/11/07 04:38:36;;;;;;;3.80;1.17;;;;;16.60;101294.00;;;;5030466;28;20258;-82
2021/11/07 04:41:05;;;;;;;3.50;1.00;;;;;16.60;101291.00;;;;5029746;28;20207;-82
2021/11/07 04:43:33;;;;;;;5.25;1.83;;;;;16.60;101294.00;;;;5038456;28;20207;-82
2021/11/07 04:46:01;;;;;;;4.45;1.25;;;;;16.60;101280.00;;;;5031938;28;20621;-82
2021/11/07 04:48:29;;;;;;;4.45;1.08;;;;;16.60;101282.00;;;;5037373;28;20223;-83
2021/11/07 04:50:56;;;;;;;2.60;0.75;;;;;16.50;101304.00;;;;5049449;28;20305;-82
2021/11/07 04:53:24;;;;;;;5.72;1.75;;;;;16.50;101300.00;;;;5049093;28;20203;-83
2021/11/07 04:55:52;;;;;;;5.50;1.30;;;;;16.50;101283.00;;;;5033814;28;20208;-82
2021/11/07 04:58:21;;;;;;;5.22;1.25;;;;;16.50;101311.00;;;;5028784;28;20204;-82
2021/11/07 05:00:48;;;;;;;7.75;1.52;;;;;16.40;101288.00;;;;5029110;28;20227;-82
2021/11/07 05:03:15;;;;;;;4.65;1.30;;;;;16.40;101284.00;;;;5029220;28;20197;-82
2021/11/07 05:05:42;;;;;;;3.03;0.95;;;;;16.40;101293.00;;;;5028614;28;20670;-83
2021/11/07 05:08:10;;;;;;;5.43;0.80;;;;;16.30;101293.00;;;;5029053;28;20203;-82
2021/11/07 05:10:37;;;;;;;2.65;1.10;;;;;16.30;101289.00;;;;5029865;28;20227;-82
2021/11/07 05:13:07;;;;;;;2.63;1.00;;;;;16.30;101288.00;;;;5029528;28;20212;-82
2021/11/07 05:15:35;;;;;;;2.38;0.73;;;;;16.20;101295.00;;;;5029395;28;20546;-82
2021/11/07 05:18:03;;;;;;;3.65;1.00;;;;;16.20;101290.00;;;;5028648;28;20200;-82
2021/11/07 05:20:30;;;;;;;6.75;1.00;;;;;16.10;101291.00;;;;5028628;28;20266;-82
2021/11/07 05:22:58;;;;;;;4.35;0.85;;;;;16.10;101291.00;;;;5029332;28;20662;-82
2021/11/07 05:25:25;;;;;;;6.82;1.40;;;;;16.10;101292.00;;;;5028928;28;20200;-82
2021/11/07 05:27:53;;;;;;;1.88;0.85;;;;;16.10;101291.00;;;;5029048;28;20232;-82
2021/11/07 05:30:22;;;;;;;6.35;1.13;;;;;16.00;101292.00;;;;5028766;28;20208;-82
2021/11/07 05:32:49;;;;;;;3.63;1.30;;;;;16.00;101293.00;;;;5027424;28;20582;-82
2021/11/07 05:35:19;;;;;;;4.10;1.15;;;;;16.00;101290.00;;;;5029209;28;20239;-82
2021/11/07 05:37:47;;;;;;;5.22;1.13;;;;;16.00;101290.00;;;;5036685;28;20235;-82
2021/11/07 05:40:15;;;;;;;5.60;1.35;;;;;16.00;101296.00;;;;5048361;28;20227;-82
2021/11/07 05:42:43;;;;;;;3.35;1.00;;;;;16.00;101295.00;;;;5049014;28;20200;-82
2021/11/07 05:45:10;;;;;;;1.95;0.60;;;;;15.90;101299.00;;;;5045343;28;20201;-82
2021/11/07 05:47:39;;;;;;;4.20;0.80;;;;;15.90;101305.00;;;;5028628;28;20232;-82
2021/11/07 05:50:08;;;;;;;3.42;1.25;;;;;15.80;101310.00;;;;5039413;28;20709;-82
2021/11/07 05:52:35;;;;;;;4.22;1.02;;;;;15.80;101317.00;;;;5028736;28;20208;-82
2021/11/07 05:55:03;;;;;;;3.92;1.05;;;;;15.80;101309.00;;;;5028739;28;20216;-82
2021/11/07 05:57:30;;;;;;;4.40;1.20;;;;;15.70;101296.00;;;;5028424;28;20295;-81
2021/11/07 05:59:58;;;;;;;3.22;0.68;;;;;15.70;101305.00;;;;5028629;28;20203;-82
2021/11/07 06:02:25;;;;;;;4.90;1.10;;;;;15.70;101316.00;;;;5029339;28;20208;-82
2021/11/07 06:04:53;;;;;;;4.18;1.10;;;;;15.60;101307.00;;;;5028741;28;20196;-82
2021/11/07 06:07:21;;;;;;;2.13;0.90;;;;;15.60;101306.00;;;;5027447;28;20234;-82
2021/11/07 06:09:48;;;;;;;3.00;1.25;;;;;15.60;101305.00;;;;5028909;28;20205;-82
2021/11/07 06:12:16;;;;;;;3.72;0.70;;;;;15.50;101310.00;;;;5027757;28;20251;-81
2021/11/07 06:14:44;;;;;;;3.40;0.98;;;;;15.50;101315.00;;;;5028875;28;20235;-82
2021/11/07 06:17:12;;;;;;;2.25;0.90;;;;;15.50;101322.00;;;;5027582;28;20291;-82
2021/11/07 06:19:39;;;;;;;5.72;1.20;;;;;15.50;101321.00;;;;5029255;28;20212;-82
2021/11/07 06:22:08;;;;;;;1.05;0.55;;;;;15.40;101331.00;;;;5029647;28;20200;-82
2021/11/07 06:24:36;;;;;;;2.53;0.73;;;;;15.40;101326.00;;;;5047490;28;20199;-82
2021/11/07 06:27:04;;;;;;;5.93;1.45;;;;;15.40;101332.00;;;;5047050;28;20690;-82
2021/11/07 06:29:32;;;;;;;2.53;0.88;;;;;15.30;101330.00;;;;5047836;28;20199;-82
2021/11/07 06:32:00;;;;;;;4.85;1.20;;;;;15.30;101328.00;;;;5050187;28;20214;-82
2021/11/07 06:34:29;;;;;;;7.82;1.85;;;;;15.30;101339.00;;;;5051072;28;20200;-82
2021/11/07 06:36:56;;;;;;;4.78;1.02;;;;;15.20;101333.00;;;;5043365;28;20583;-82
2021/11/07 06:39:25;;;;;;;4.53;1.00;;;;;15.20;101328.00;;;;5051008;28;20210;-82
2021/11/07 06:41:52;;;;;;;3.42;1.10;;;;;15.20;101336.00;;;;5051416;28;20199;-82
2021/11/07 06:44:19;;;;;;;3.47;1.00;;;;;15.10;101329.00;;;;5050733;28;20234;-82
2021/11/07 06:46:46;;;;;;;4.10;1.20;;;;;15.10;101337.00;;;;5051111;28;20211;-82
2021/11/07 06:49:14;;;;;;;4.57;1.38;;;;;15.10;101337.00;;;;5049613;28;20204;-82
2021/11/07 06:51:43;;;;;;;7.07;1.50;;;;;15.10;101339.00;;;;5050712;28;20263;-82
2021/11/07 06:54:11;;;;;;;3.78;0.85;;;;;15.10;101344.00;;;;5040236;28;20200;-82
2021/11/07 06:56:40;;;;;;;11.30;1.23;;;;;15.00;101346.00;;;;5031060;28;20204;-82
2021/11/07 06:59:08;;;;;;;4.53;0.88;;;;;15.00;101347.00;;;;5031300;28;20230;-82
2021/11/07 07:01:37;;;;;;;4.10;1.25;;;;;15.00;101342.00;;;;5042247;28;20194;-82
2021/11/07 07:04:05;;;;;;;4.75;1.17;;;;;15.00;101349.00;;;;5030595;28;20326;-82
2021/11/07 07:06:34;;;;;;;5.32;1.13;;;;;15.00;101349.00;;;;5031140;28;20216;-82
2021/11/07 07:09:04;;;;;;;3.92;1.23;;;;;15.00;101348.00;;;;5030601;28;20295;-81
2021/11/07 07:11:35;;;;;;;5.78;1.30;;;;;15.00;101342.00;;;;5031594;28;20223;-82
2021/11/07 07:14:06;;;;;;;5.38;1.42;;;;;14.90;101346.00;;;;5029965;28;20624;-82
2021/11/07 07:16:41;;;;;;;4.85;1.27;;;;;14.90;101349.00;;;;5030728;28;20717;-82
2021/11/07 07:19:24;;;;;;;4.35;0.88;;;;;14.90;101352.00;;;;5031141;28;20286;-82
2021/11/07 07:22:01;;;;;;;3.58;1.23;;;;;14.90;101357.00;;;;5030235;28;20693;-82
2021/11/07 07:27:31;;;;;;;5.47;1.20;;;;;14.90;101356.00;;;;5031636;28;20978;-82
2021/11/07 07:30:12;;;;;;;4.75;0.93;;;;;14.90;101349.00;;;;5030863;28;20258;-82
2021/11/07 07:35:29;;;;;;;6.90;1.17;;;;;14.90;101344.00;;;;5019374;28;20581;-82
2021/11/07 07:37:57;;;;;;;3.22;0.70;;;;;14.90;101352.00;;;;5048061;28;20231;-82
2021/11/07 07:40:27;;;;;;;6.13;1.27;;;;;14.90;101357.00;;;;5049924;28;20211;-82
2021/11/07 07:42:55;;;;;;;3.97;1.10;;;;;15.00;101351.00;;;;5049707;28;20203;-82
2021/11/07 07:45:24;;;;;;;5.03;0.95;;;;;15.00;101355.00;;;;5038375;28;20200;-82
2021/11/07 07:47:51;;;;;;;3.30;1.90;;;;;15.00;101365.00;;;;5031238;28;20231;-81
2021/11/07 07:50:21;;;;;;;4.85;1.27;;;;;15.10;101367.00;;;;5029855;28;20236;-82
2021/11/07 07:52:49;;;;;;;4.07;1.08;;;;;15.10;101365.00;;;;5030486;28;20200;-81
2021/11/07 07:55:17;;;;;;;4.60;0.85;;;;;15.20;101362.00;;;;5030318;28;20676;-81
2021/11/07 07:57:46;;;;;;;6.20;0.95;;;;;15.20;101378.00;;;;5030599;28;20666;-81
2021/11/07 08:00:16;;;;;;;5.72;1.05;;;;;15.20;101371.00;;;;5030724;28;20211;-82
2021/11/07 08:02:45;;;;;;;5.60;1.05;;;;;15.20;101378.00;;;;5045541;28;20219;-81
2021/11/07 08:05:14;;;;;;;6.82;0.80;;;;;15.30;101383.00;;;;5048642;28;20211;-82
2021/11/07 08:07:42;;;;;;;4.93;1.08;;;;;15.30;101378.00;;;;5041691;28;20224;-82
2021/11/07 08:10:11;;;;;;;5.63;1.00;;;;;15.40;101385.00;;;;5028701;28;20674;-83
2021/11/07 08:12:39;;;;;;;4.85;1.45;;;;;15.40;101393.00;;;;5028296;28;20200;-82
2021/11/07 08:15:06;;;;;;;7.10;1.63;;;;;15.40;101381.00;;;;5027866;28;20215;-82
2021/11/07 08:17:34;;;;;;;8.93;2.08;;;;;15.50;101391.00;;;;5028200;28;20208;-82
2021/11/07 08:20:05;;;;;;;5.18;1.17;;;;;15.50;101383.00;;;;5029211;28;20200;-82
2021/11/07 08:22:33;;;;;;;3.80;1.00;;;;;15.60;101387.00;;;;5028930;28;20228;-82
2021/11/07 08:25:05;;;;;;;5.68;1.17;;;;;15.70;101392.00;;;;5028564;28;20207;-82
2021/11/07 08:27:32;;;;;;;5.57;1.83;;;;;15.80;101386.00;;;;5028751;28;20231;-83
2021/11/07 08:30:00;;;;;;;4.82;1.73;;;;;15.90;101382.00;;;;5029745;28;20204;-82
2021/11/07 08:32:28;;;;;;;7.20;1.05;;;;;15.90;101376.00;;;;5029742;28;20227;-82
2021/11/07 08:34:55;;;;;;;7.57;1.35;;;;;15.90;101374.00;;;;5030165;28;20252;-82
2021/11/07 08:37:30;;;;;;;4.57;1.08;;;;;16.00;101373.00;;;;5042358;28;20199;-82
2021/11/07 08:39:59;;;;;;;6.28;1.30;;;;;16.00;101369.00;;;;5049530;28;20286;-82
2021/11/07 08:42:32;;;;;;;3.72;0.95;;;;;16.00;101379.00;;;;5049445;28;20218;-82
2021/11/07 09:01:37;;;;;;;6.20;1.35;;;;;16.20;101385.00;;;;5028702;28;20250;-83
2021/11/07 09:04:18;;;;;;;8.15;2.25;;;;;16.20;101378.00;;;;5028734;28;20218;-83
2021/11/07 09:06:59;;;;;;;3.35;1.10;;;;;16.30;101392.00;;;;5029057;28;20592;-82
2021/11/07 09:09:33;;;;;;;4.60;1.02;;;;;16.30;101384.00;;;;5029566;28;20535;-83
2021/11/07 09:12:01;;;;;;;5.82;1.25;;;;;16.40;101376.00;;;;5028048;28;20283;-83
2021/11/07 09:14:34;;;;;;;8.98;1.52;;;;;16.40;101383.00;;;;5029083;28;20570;-83
2021/11/07 09:17:02;;;;;;;4.45;1.08;;;;;16.50;101383.00;;;;5040602;28;20204;-82
2021/11/07 09:19:31;;;;;;;5.28;1.05;;;;;16.50;101375.00;;;;5029694;28;20212;-83
2021/11/07 09:22:03;;;;;;;3.92;1.00;;;;;16.60;101376.00;;;;5028885;28;20203;-83
2021/11/07 09:24:36;;;;;;;8.20;1.63;;;;;16.60;101375.00;;;;5028733;28;20681;-83
2021/11/07 09:27:10;;;;;;;5.65;0.93;;;;;16.70;101384.00;;;;5028077;28;20759;-83
2021/11/07 09:29:47;;;;;;;4.05;0.90;;;;;16.70;101373.00;;;;5029200;28;20262;-82
2021/11/07 09:32:26;;;;;;;7.50;1.52;;;;;16.80;101377.00;;;;5028414;28;20208;-83
2021/11/07 09:34:57;;;;;;;3.92;1.17;;;;;16.90;101383.00;;;;5028334;28;20274;-83
2021/11/07 09:37:30;;;;;;;3.65;1.48;;;;;16.90;101391.00;;;;5047601;28;20210;-82
2021/11/07 09:40:00;;;;;;;5.50;1.05;;;;;17.00;101384.00;;;;5048463;28;20218;-83
2021/11/07 09:42:50;;;;;;;6.13;1.77;;;;;17.00;101389.00;;;;5047783;28;20214;-83
2021/11/07 09:45:22;;;;;;;5.07;1.35;;;;;17.10;101400.00;;;;5028257;28;20708;-83
2021/11/07 09:47:54;;;;;;;9.20;1.10;;;;;17.10;101388.00;;;;5027911;28;20670;-82
2021/11/07 09:50:22;;;;;;;3.13;0.60;;;;;17.10;101386.00;;;;5027512;28;20255;-82
2021/11/07 09:52:52;;;;;;;4.13;0.98;;;;;17.20;101392.00;;;;5028109;28;20200;-82
2021/11/07 09:55:23;;;;;;;6.95;1.20;;;;;17.20;101396.00;;;;5027608;28;20216;-83
2021/11/07 09:57:53;;;;;;;4.88;1.30;;;;;17.30;101397.00;;;;5028275;28;20207;-83
2021/11/07 10:00:23;;;;;;;11.27;1.10;;;;;17.40;101395.00;;;;5027576;28;20208;-83
2021/11/07 10:02:50;;;;;;;4.25;0.90;;;;;17.40;101408.00;;;;5027793;28;20204;-83
2021/11/07 10:05:19;;;;;;;3.85;1.02;;;;;17.50;101392.00;;;;5028161;28;20208;-82
2021/11/07 10:07:55;;;;;;;5.00;1.25;;;;;17.50;101403.00;;;;5032051;28;20223;-82
2021/11/07 10:10:29;;;;;;;3.75;1.17;;;;;17.60;101408.00;;;;5031322;28;20196;-82
2021/11/07 10:12:57;;;;;;;5.95;1.48;;;;;17.60;101409.00;;;;5031528;28;20204;-82
2021/11/07 10:15:30;;;;;;;6.05;1.48;;;;;17.60;101419.00;;;;5031934;28;20216;-83
2021/11/07 10:18:03;;;;;;;7.25;1.45;;;;;17.70;101404.00;;;;5032091;28;20307;-84
2021/11/07 10:20:35;;;;;;;5.78;1.25;;;;;17.70;101403.00;;;;5031712;28;20210;-83
2021/11/07 10:23:10;;;;;;;7.68;1.08;;;;;17.70;101400.00;;;;5031136;28;20204;-83
2021/11/07 10:25:44;;;;;;;3.80;1.27;;;;;17.80;101399.00;;;;5031781;28;20588;-82
2021/11/07 10:28:19;;;;;;;6.80;1.42;;;;;17.80;101398.00;;;;5042349;28;20230;-82
2021/11/07 10:30:49;;;;;;;4.45;1.38;;;;;17.80;101400.00;;;;5033040;28;20200;-83
2021/11/07 10:36:55;;;;;;;6.18;1.60;;;;;17.80;101405.00;;;;5029937;28;20581;-83
2021/11/07 10:42:21;;;;;;;6.57;1.17;;;;;17.90;101402.00;;;;5027185;28;20211;-84
2021/11/07 10:45:12;;;;;;;4.60;1.30;;;;;17.90;101414.00;;;;5032279;28;20200;-83
2021/11/07 10:53:19;;;;;;;3.40;0.77;;;;;18.10;101396.00;;;;5050112;28;20731;-82
2021/11/07 10:55:48;;;;;;;4.40;1.52;;;;;18.20;101394.00;;;;5052412;28;20245;-83
2021/11/07 10:58:24;;;;;;;5.82;1.30;;;;;18.30;101392.00;;;;5051733;28;20211;-83
2021/11/07 11:00:51;;;;;;;4.35;1.20;;;;;18.40;101404.00;;;;5051339;28;20199;-83
2021/11/07 11:03:20;;;;;;;5.10;1.70;;;;;18.40;101392.00;;;;5051166;28;20204;-83
2021/11/07 11:05:51;;;;;;;4.47;1.25;;;;;18.40;101382.00;;;;5051042;28;20215;-83
2021/11/07 11:08:22;;;;;;;8.93;1.63;;;;;18.50;101389.00;;;;5049808;28;20433;-83
2021/11/07 11:10:58;;;;;;;7.93;1.27;;;;;18.60;101375.00;;;;5051608;28;20207;-83
2021/11/07 11:13:33;;;;;;;2.90;0.70;;;;;18.70;101387.00;;;;5051220;28;20215;-83
2021/11/07 11:16:24;;;;;;;7.50;1.48;;;;;18.80;101382.00;;;;5050591;28;20211;-83
2021/11/07 11:21:55;;;;;;;5.07;1.27;;;;;18.70;101378.00;;;;5051503;28;20249;-83
2021/11/07 11:24:36;;;;;;;7.13;1.13;;;;;18.70;101388.00;;;;5050744;28;20200;-83
2021/11/07 11:30:16;;;;;;;3.70;0.88;;;;;18.60;101414.00;;;;4989229;28;20228;-83
2021/11/07 11:32:48;;;;;;;7.30;1.27;;;;;18.50;101432.00;;;;4989048;28;20699;-82
2021/11/07 11:35:20;;;;;;;7.07;1.08;;;;;18.30;101429.00;;;;5011469;28;20210;-81
2021/11/07 11:37:56;;;;;;;3.53;0.82;;;;;18.20;101431.00;;;;5041883;28;20632;-82
2021/11/07 11:40:27;;;;;;;2.67;0.90;;;;;18.00;101427.00;;;;5030802;28;20216;-81
2021/11/07 11:42:58;;;;;;;2.95;0.70;;;;;17.80;101423.00;;;;5031084;28;20678;-82
2021/11/07 11:45:29;;;;;;;5.40;0.98;;;;;17.70;101415.00;;;;5030674;28;20223;-82
2021/11/07 11:48:30;;;;;;;3.30;0.80;;;;;17.50;101409.00;;;;5031005;28;20224;-82
2021/11/07 11:51:24;;;;;;;3.08;0.77;;;;;17.50;101404.00;;;;5030474;28;20251;-82
2021/11/07 11:54:27;;;;;;;4.13;0.68;;;;;17.30;101410.00;;;;5030676;28;20232;-83
2021/11/07 11:57:21;;;;;;;3.55;0.70;;;;;17.30;101405.00;;;;5030998;28;20232;-82
2021/11/07 11:59:57;;;;;;;2.13;0.50;;;;;17.40;101411.00;;;;5030869;28;20208;-83
2021/11/07 12:02:31;;;;;;;3.45;0.75;;;;;17.30;101397.00;;;;5030441;28;20210;-82
2021/11/07 12:05:08;;;;;;;3.55;1.10;;;;;17.20;101377.00;;;;5029994;28;20670;-82
2021/11/07 12:07:43;;;;;;;4.15;0.70;;;;;17.20;101381.00;;;;5030635;28;20207;-82
2021/11/07 12:10:33;;;;;;;2.67;0.75;;;;;17.10;101379.00;;;;5030776;28;20204;-82
2021/11/07 12:13:02;;;;;;;6.45;1.38;;;;;17.20;101392.00;;;;5030252;28;20204;-81
2021/11/07 12:15:47;;;;;;;5.00;1.20;;;;;17.10;101388.00;;;;5029378;28;20616;-82
2021/11/07 12:18:16;;;;;;;7.63;1.20;;;;;17.20;101387.00;;;;5041781;28;20698;-82
2021/11/07 12:20:44;;;;;;;7.95;1.45;;;;;17.10;101386.00;;;;5050102;28;20210;-82
2021/11/07 12:23:17;;;;;;;6.82;1.45;;;;;17.10;101393.00;;;;5049787;28;20207;-83
2021/11/07 12:25:45;;;;;;;5.25;0.98;;;;;17.10;101402.00;;;;5049469;28;20265;-82
2021/11/07 12:28:14;;;;;;;7.10;1.25;;;;;17.00;101408.00;;;;5048494;28;20315;-82
2021/11/07 12:30:41;;;;;;;4.20;1.00;;;;;17.00;101405.00;;;;5050232;28;20672;-83
2021/11/07 12:33:12;;;;;;;6.07;1.52;;;;;17.00;101397.00;;;;5047393;28;20207;-83
2021/11/07 12:35:49;;;;;;;7.07;1.50;;;;;16.90;101402.00;;;;5029851;28;20220;-83
2021/11/07 12:41:16;;;;;;;5.72;1.27;;;;;16.80;101402.00;;;;5029303;28;20199;-82
2021/11/07 12:43:46;;;;;;;5.95;1.20;;;;;16.80;101383.00;;;;5030044;28;20200;-82
2021/11/07 12:46:35;;;;;;;5.22;1.48;;;;;16.80;101383.00;;;;5029106;28;20200;-82
2021/11/07 12:49:07;;;;;;;6.03;1.17;;;;;16.90;101386.00;;;;5038078;28;20219;-82
2021/11/07 12:51:39;;;;;;;3.22;1.20;;;;;17.00;101392.00;;;;5044882;28;20238;-82
2021/11/07 12:54:13;;;;;;;5.03;1.50;;;;;17.20;101389.00;;;;5049344;28;20207;-83
2021/11/07 12:56:57;;;;;;;4.45;1.23;;;;;17.50;101387.00;;;;5049075;28;20238;-82
2021/11/07 12:59:31;;;;;;;6.82;1.40;;;;;17.90;101383.00;;;;5049244;28;20664;-82
2021/11/07 13:02:16;;;;;;;5.20;1.33;;;;;18.00;101393.00;;;;5049316;28;20215;-83
2021/11/07 13:04:53;;;;;;;7.82;1.60;;;;;18.20;101388.00;;;;5048567;28;20286;-82
2021/11/07 13:07:25;;;;;;;6.07;1.38;;;;;18.20;101387.00;;;;5048305;28;20214;-82
2021/11/07 13:09:57;;;;;;;5.63;1.27;;;;;18.20;101399.00;;;;5048838;28;20227;-82
2021/11/07 13:12:29;;;;;;;7.55;1.55;;;;;18.20;101393.00;;;;5048872;28;20617;-83